Time;durP1;ratioP1;P1;durP2;ratioP2;P2;SDS_P1;SDS_P2;PMS_P1;PMS_P2;Temp;Humidity;BMP_temperature;BMP_pressure;BME280_temperature;BME280_humidity;BME280_pressure;Samples;Min_cycle;Max_cycle;Signal;HPM_P1;HPM_P2
2022/08/18 11:06:48;;;;;;;16.03;14.57;;;27.60;79.80;;;;;;5033662;28;20510;-85
2022/08/18 11:09:23;;;;;;;15.43;14.03;;;27.60;79.60;;;;;;5033513;28;20461;-85
2022/08/18 11:11:52;;;;;;;14.77;13.27;;;27.60;79.50;;;;;;5034075;28;20445;-85
2022/08/18 11:14:44;;;;;;;15.40;14.10;;;27.60;79.40;;;;;;5039232;28;20512;-85
2022/08/18 11:17:21;;;;;;;14.13;12.77;;;27.70;79.40;;;;;;5036245;28;20492;-84
2022/08/18 11:19:48;;;;;;;12.90;11.33;;;27.70;79.20;;;;;;5053605;28;20536;-85
2022/08/18 11:22:24;;;;;;;13.13;12.00;;;27.70;79.00;;;;;;5053473;28;21020;-85
2022/08/18 11:24:51;;;;;;;12.60;11.60;;;27.80;78.90;;;;;;5053325;28;20506;-87
2022/08/18 11:27:21;;;;;;;11.57;10.67;;;27.70;78.80;;;;;;5053422;28;20446;-87
2022/08/18 11:29:50;;;;;;;11.70;10.17;;;27.80;78.80;;;;;;5053229;28;20453;-85
2022/08/18 11:32:22;;;;;;;9.90;9.10;;;27.80;78.90;;;;;;5053567;28;20527;-84
2022/08/18 11:34:51;;;;;;;10.30;9.40;;;27.80;78.70;;;;;;5033480;28;20989;-85
2022/08/18 11:37:30;;;;;;;9.67;8.87;;;27.80;78.70;;;;;;5033889;28;20471;-84
2022/08/18 11:39:59;;;;;;;9.93;9.17;;;27.90;78.60;;;;;;5033471;28;20474;-84
2022/08/18 11:42:32;;;;;;;10.33;9.53;;;27.80;79.50;;;;;;5033215;28;20541;-84
2022/08/18 11:45:15;;;;;;;9.67;8.73;;;27.80;78.50;;;;;;5033615;28;20550;-85
2022/08/18 11:48:01;;;;;;;9.90;9.10;;;27.90;78.50;;;;;;5034872;28;20438;-84
2022/08/18 11:50:30;;;;;;;8.90;8.17;;;27.90;78.50;;;;;;5033821;28;20933;-84
2022/08/18 11:53:17;;;;;;;9.40;8.60;;;27.80;78.40;;;;;;5033501;28;20482;-90
2022/08/18 11:55:44;;;;;;;10.03;9.30;;;27.90;78.50;;;;;;5033840;28;20442;-85
2022/08/18 11:58:31;;;;;;;9.23;8.43;;;27.80;78.50;;;;;;5033665;28;21032;-84
2022/08/18 12:00:58;;;;;;;10.60;9.70;;;27.80;78.40;;;;;;5033299;28;20529;-84
2022/08/18 12:03:30;;;;;;;9.30;8.60;;;27.80;78.40;;;;;;5033694;28;20434;-84
2022/08/18 12:06:00;;;;;;;8.60;7.70;;;27.80;78.30;;;;;;5033265;28;20466;-84
2022/08/18 12:08:54;;;;;;;9.10;8.47;;;27.80;78.40;;;;;;5033231;28;20457;-84
2022/08/18 12:11:24;;;;;;;7.90;7.23;;;27.80;78.20;;;;;;5033481;28;20791;-84
2022/08/18 12:14:00;;;;;;;9.27;8.10;;;27.80;78.50;;;;;;5033396;28;20921;-84
2022/08/18 12:16:34;;;;;;;8.23;7.63;;;27.80;78.30;;;;;;5033275;28;20454;-84
2022/08/18 12:19:02;;;;;;;7.90;7.40;;;27.80;78.30;;;;;;5032735;28;20453;-85
2022/08/18 12:21:29;;;;;;;8.13;7.53;;;27.80;78.30;;;;;;5033318;28;20529;-88
2022/08/18 12:23:57;;;;;;;8.23;7.47;;;27.80;78.30;;;;;;5033582;28;20526;-84
2022/08/18 12:26:24;;;;;;;9.53;8.63;;;27.80;78.30;;;;;;5033493;28;20466;-84
2022/08/18 12:28:51;;;;;;;8.73;8.13;;;27.80;78.20;;;;;;5033232;28;20482;-85
2022/08/18 12:31:18;;;;;;;9.10;8.40;;;27.80;78.20;;;;;;5033214;28;20537;-84
2022/08/18 12:33:45;;;;;;;7.90;7.30;;;27.80;78.00;;;;;;5032914;28;20586;-86
2022/08/18 12:36:12;;;;;;;7.80;7.10;;;27.80;78.10;;;;;;5033225;28;20853;-85
2022/08/18 12:38:42;;;;;;;7.90;7.30;;;27.80;78.00;;;;;;5033225;28;20501;-86
2022/08/18 12:41:13;;;;;;;8.87;7.97;;;27.80;78.10;;;;;;5033042;28;20926;-85
2022/08/18 12:43:40;;;;;;;8.73;8.00;;;27.80;78.00;;;;;;5033302;28;21007;-85
2022/08/18 12:46:08;;;;;;;7.87;6.80;;;27.80;77.90;;;;;;5033206;28;20526;-87
2022/08/18 12:48:37;;;;;;;8.10;7.30;;;27.80;77.70;;;;;;5033247;28;20538;-85
2022/08/18 12:51:04;;;;;;;6.80;6.40;;;27.80;77.70;;;;;;5034316;28;20442;-87
2022/08/18 12:53:31;;;;;;;8.13;7.60;;;27.90;77.60;;;;;;5033515;28;20485;-85
2022/08/18 12:55:58;;;;;;;10.43;6.33;;;27.80;77.60;;;;;;5033050;28;20438;-85
2022/08/18 12:58:26;;;;;;;9.43;6.77;;;27.80;77.60;;;;;;5032890;28;20491;-86
2022/08/18 13:00:54;;;;;;;7.50;6.90;;;27.80;77.60;;;;;;5033006;28;20438;-85
2022/08/18 13:03:21;;;;;;;7.73;7.23;;;27.80;77.70;;;;;;5033247;28;20450;-86
2022/08/18 13:05:47;;;;;;;8.37;7.67;;;27.80;77.70;;;;;;5049740;28;20505;-85
2022/08/18 13:08:18;;;;;;;12.77;7.60;;;27.80;77.80;;;;;;5052809;28;20472;-89
2022/08/18 13:10:46;;;;;;;8.50;8.00;;;27.80;77.70;;;;;;5053154;28;20526;-85
2022/08/18 13:13:14;;;;;;;6.23;5.90;;;27.80;77.70;;;;;;5052922;28;20507;-85
2022/08/18 13:15:43;;;;;;;7.80;7.30;;;27.80;77.70;;;;;;5052522;28;20446;-88
2022/08/18 13:18:10;;;;;;;7.87;7.20;;;27.80;77.70;;;;;;5052275;28;21006;-85
2022/08/18 13:20:37;;;;;;;6.90;6.50;;;27.80;77.80;;;;;;5052371;28;20834;-85
2022/08/18 13:23:04;;;;;;;7.43;6.93;;;27.80;77.80;;;;;;5052884;28;20460;-89
2022/08/18 13:25:31;;;;;;;7.80;7.27;;;27.80;77.70;;;;;;5052368;28;20536;-85
2022/08/18 13:27:58;;;;;;;7.60;7.10;;;27.80;77.70;;;;;;5052127;28;20481;-85
2022/08/18 13:30:26;;;;;;;6.73;6.23;;;27.80;77.60;;;;;;5054233;28;20437;-85
2022/08/18 13:32:54;;;;;;;6.90;6.40;;;27.80;77.60;;;;;;5056370;28;20473;-85
2022/08/18 13:35:21;;;;;;;6.70;6.20;;;27.80;77.60;;;;;;5056302;28;20481;-86
2022/08/18 13:37:48;;;;;;;7.57;7.07;;;27.80;77.60;;;;;;5056089;28;21003;-87
2022/08/18 13:40:15;;;;;;;6.43;5.93;;;27.80;77.60;;;;;;5056281;28;20882;-86
2022/08/18 13:42:47;;;;;;;7.30;6.83;;;27.80;77.50;;;;;;5056124;28;20454;-85
2022/08/18 13:45:15;;;;;;;7.27;6.77;;;27.80;77.50;;;;;;5056245;28;20449;-85
2022/08/18 13:47:43;;;;;;;6.63;6.13;;;27.80;77.50;;;;;;5055905;28;20496;-91
2022/08/18 13:50:12;;;;;;;8.07;7.47;;;27.80;77.40;;;;;;5056073;28;20972;-85
2022/08/18 13:52:40;;;;;;;6.43;6.03;;;27.80;77.40;;;;;;5056138;28;20457;-88
2022/08/18 13:55:10;;;;;;;7.17;6.43;;;27.80;77.40;;;;;;5056005;28;20481;-85
2022/08/18 13:57:38;;;;;;;6.80;6.40;;;27.80;77.30;;;;;;5056020;28;20967;-96
2022/08/18 14:00:10;;;;;;;7.20;6.80;;;27.80;77.80;;;;;;5056079;28;20474;-85
2022/08/18 14:02:37;;;;;;;7.17;6.57;;;27.80;77.30;;;;;;5056040;28;20442;-85
2022/08/18 14:05:06;;;;;;;6.83;6.43;;;27.80;77.30;;;;;;5055458;28;20902;-85
2022/08/18 14:07:34;;;;;;;7.20;6.73;;;27.80;77.30;;;;;;5055118;28;20545;-84
2022/08/18 14:10:01;;;;;;;6.33;5.93;;;27.80;77.30;;;;;;5054960;28;20538;-85
2022/08/18 14:12:28;;;;;;;6.13;5.73;;;27.80;77.30;;;;;;5055387;28;20473;-85
2022/08/18 14:14:56;;;;;;;6.23;5.83;;;27.80;77.30;;;;;;5054919;28;20547;-92
2022/08/18 14:17:24;;;;;;;7.33;6.53;;;27.80;77.30;;;;;;5054676;28;20446;-84
2022/08/18 14:28:08;;;;;;;5.73;5.43;;;27.80;77.30;;;;;;5055299;28;20425;-85
2022/08/18 14:30:36;;;;;;;5.57;5.17;;;27.80;77.30;;;;;;5055395;28;20437;-92
2022/08/18 14:33:05;;;;;;;8.47;7.73;;;27.80;77.30;;;;;;5055456;28;20481;-85
2022/08/18 14:35:32;;;;;;;6.60;6.10;;;27.80;77.10;;;;;;5055012;28;21073;-91
2022/08/18 14:38:01;;;;;;;6.50;6.10;;;27.80;77.20;;;;;;5055056;28;20649;-84
2022/08/18 14:40:28;;;;;;;5.63;5.33;;;27.80;77.10;;;;;;5055042;28;20442;-84
2022/08/18 14:42:55;;;;;;;5.90;5.60;;;27.80;77.10;;;;;;5054400;28;20480;-90
2022/08/18 14:45:23;;;;;;;6.07;5.70;;;27.80;77.10;;;;;;5055390;28;20530;-90
2022/08/18 14:47:52;;;;;;;6.57;6.07;;;27.80;77.00;;;;;;5055074;28;20449;-84
2022/08/18 14:50:20;;;;;;;5.83;5.47;;;27.80;77.00;;;;;;5055105;28;20468;-84
2022/08/18 14:52:48;;;;;;;5.40;5.10;;;27.80;76.90;;;;;;5054969;28;20446;-84
2022/08/18 14:55:17;;;;;;;6.27;5.87;;;27.80;76.90;;;;;;5055239;28;20492;-88
2022/08/18 14:57:45;;;;;;;6.03;5.70;;;27.80;77.00;;;;;;5029057;28;20438;-84
2022/08/18 15:00:15;;;;;;;6.10;5.70;;;27.80;76.90;;;;;;5054923;28;20453;-85
2022/08/18 15:02:42;;;;;;;6.13;5.63;;;27.80;76.90;;;;;;5054789;28;20504;-91
2022/08/18 15:05:11;;;;;;;5.30;5.00;;;27.80;76.90;;;;;;5054435;28;20497;-85
2022/08/18 15:07:38;;;;;;;5.87;5.47;;;27.80;76.80;;;;;;5054549;28;20884;-91
2022/08/18 15:10:07;;;;;;;5.80;5.50;;;27.80;76.80;;;;;;5054566;28;20442;-83
2022/08/18 15:12:35;;;;;;;5.33;5.00;;;27.80;76.80;;;;;;5054640;28;20532;-83
2022/08/18 15:15:03;;;;;;;6.23;5.83;;;27.90;76.90;;;;;;5054601;28;20481;-84
2022/08/18 15:17:30;;;;;;;6.00;5.60;;;27.90;76.90;;;;;;5054304;28;20478;-84
2022/08/18 15:19:57;;;;;;;5.50;5.20;;;27.90;76.80;;;;;;5054131;28;20446;-84
2022/08/18 15:27:55;;;;;;;5.27;4.97;;;27.80;76.80;;;;;;5054433;28;20413;-91
2022/08/18 15:30:22;;;;;;;5.00;4.60;;;27.80;76.80;;;;;;5054401;28;20975;-85
2022/08/18 15:32:50;;;;;;;4.90;4.60;;;27.80;77.60;;;;;;5053849;28;20532;-85
2022/08/18 15:35:18;;;;;;;5.57;5.27;;;27.90;76.90;;;;;;5053508;28;20902;-84
2022/08/18 15:37:47;;;;;;;4.73;4.53;;;27.90;76.90;;;;;;5052818;28;20509;-85
2022/08/18 15:40:18;;;;;;;4.70;4.40;;;27.90;76.80;;;;;;5053488;28;20446;-84
2022/08/18 15:42:48;;;;;;;5.23;4.83;;;27.90;76.80;;;;;;5045396;28;20450;-84
2022/08/18 15:45:17;;;;;;;5.10;4.80;;;27.90;76.80;;;;;;5053417;28;20441;-84
2022/08/18 15:47:44;;;;;;;4.83;4.43;;;27.90;76.80;;;;;;5053880;28;20473;-84
2022/08/18 15:50:12;;;;;;;4.87;4.57;;;27.90;76.80;;;;;;5054057;28;20796;-84
2022/08/18 15:52:46;;;;;;;4.60;4.30;;;27.90;76.80;;;;;;5053790;28;20956;-84
2022/08/18 15:55:13;;;;;;;4.50;4.30;;;27.90;77.60;;;;;;5053306;28;20493;-85
2022/08/18 15:57:40;;;;;;;5.43;5.13;;;27.90;76.80;;;;;;5053851;28;20532;-84
2022/08/18 16:00:09;;;;;;;4.40;4.20;;;27.90;76.70;;;;;;5053317;28;20533;-84
2022/08/18 16:02:37;;;;;;;5.40;5.10;;;27.90;76.70;;;;;;5053288;28;20450;-88
2022/08/18 16:05:05;;;;;;;4.87;4.57;;;27.90;76.70;;;;;;5052952;28;20580;-84
2022/08/18 16:07:32;;;;;;;5.20;4.80;;;27.90;76.70;;;;;;5053059;28;20808;-85
2022/08/18 16:10:00;;;;;;;5.10;4.80;;;27.90;76.70;;;;;;5053220;28;20529;-84
2022/08/18 16:12:27;;;;;;;5.13;4.67;;;27.90;76.80;;;;;;5052894;28;21209;-85
2022/08/18 16:14:54;;;;;;;4.37;4.17;;;27.90;76.80;;;;;;5052972;28;20569;-84
2022/08/18 16:17:21;;;;;;;4.87;4.63;;;27.90;76.90;;;;;;5052597;28;20473;-84
2022/08/18 16:19:49;;;;;;;4.40;4.20;;;27.90;76.80;;;;;;5052577;28;20532;-85
2022/08/18 16:22:16;;;;;;;4.47;4.20;;;27.90;76.80;;;;;;5052615;28;20540;-84
2022/08/18 16:24:43;;;;;;;6.17;5.13;;;27.90;76.80;;;;;;5052761;28;20448;-85
2022/08/18 16:27:11;;;;;;;4.13;3.83;;;27.90;76.70;;;;;;5052774;28;20450;-84
2022/08/18 16:29:38;;;;;;;4.33;4.10;;;27.90;76.60;;;;;;5052641;28;20477;-84
2022/08/18 16:32:05;;;;;;;4.40;4.13;;;27.90;76.60;;;;;;5052560;28;20477;-84
2022/08/18 16:34:33;;;;;;;4.30;4.10;;;27.90;76.60;;;;;;5052619;28;20907;-84
2022/08/18 16:37:01;;;;;;;4.77;4.37;;;27.90;76.70;;;;;;5052078;28;21106;-84
2022/08/18 16:39:32;;;;;;;4.67;4.47;;;27.90;76.90;;;;;;5052365;28;20527;-83
2022/08/18 16:41:59;;;;;;;4.47;4.07;;;27.90;76.90;;;;;;5053006;28;20445;-84
2022/08/18 16:44:26;;;;;;;4.33;4.13;;;27.90;77.70;;;;;;5053290;28;20444;-83
2022/08/18 16:46:53;;;;;;;4.17;3.97;;;27.90;76.80;;;;;;5053516;28;20481;-83
2022/08/18 16:49:19;;;;;;;4.70;4.40;;;27.90;76.80;;;;;;5053287;28;20452;-84
2022/08/18 16:51:46;;;;;;;4.40;4.17;;;27.90;76.80;;;;;;5053023;28;20484;-83
2022/08/18 16:54:15;;;;;;;3.77;3.47;;;27.90;76.80;;;;;;5052578;28;20508;-83
2022/08/18 16:56:42;;;;;;;3.90;3.70;;;27.90;76.80;;;;;;5052472;28;20477;-84
2022/08/18 17:04:37;;;;;;;4.17;3.97;;;27.90;76.80;;;;;;5052577;28;20468;-84
2022/08/18 17:07:05;;;;;;;6.03;4.33;;;27.90;76.80;;;;;;5057744;28;20497;-84
2022/08/18 17:09:35;;;;;;;4.77;4.47;;;27.90;76.70;;;;;;5076076;28;20959;-83
2022/08/18 17:12:02;;;;;;;3.70;3.50;;;27.90;76.70;;;;;;5076354;28;20525;-84
2022/08/18 17:14:30;;;;;;;4.10;3.80;;;27.90;76.60;;;;;;5076531;28;20448;-84
2022/08/18 17:16:59;;;;;;;4.50;4.10;;;27.90;76.70;;;;;;5076608;28;20471;-83
2022/08/18 17:19:29;;;;;;;4.20;3.87;;;27.90;76.60;;;;;;5076746;28;20449;-84
2022/08/18 17:21:56;;;;;;;4.50;4.30;;;27.90;77.60;;;;;;5076485;28;20444;-83
2022/08/18 17:24:23;;;;;;;3.83;3.63;;;27.90;76.70;;;;;;5076611;28;20476;-84
2022/08/18 17:26:59;;;;;;;5.07;3.93;;;27.90;76.70;;;;;;5076535;28;21026;-84
2022/08/18 17:29:29;;;;;;;3.53;3.33;;;27.90;76.60;;;;;;5076471;28;20439;-83
2022/08/18 17:31:59;;;;;;;3.73;3.53;;;27.90;76.60;;;;;;5068609;28;20554;-84
2022/08/18 17:34:31;;;;;;;4.20;4.00;;;27.90;76.70;;;;;;5071319;28;20947;-84
2022/08/18 17:37:00;;;;;;;3.33;3.20;;;27.90;76.70;;;;;;5077387;28;20459;-90
2022/08/18 17:39:32;;;;;;;4.20;3.70;;;27.90;76.60;;;;;;5078621;28;20444;-86
2022/08/18 17:44:46;;;;;;;3.50;3.30;;;27.90;76.70;;;;;;5074426;28;20938;-86
2022/08/18 17:47:18;;;;;;;3.80;3.60;;;27.90;76.80;;;;;;5076192;28;20498;-86
2022/08/18 17:52:39;;;;;;;3.17;2.93;;;27.90;76.80;;;;;;5076317;28;20423;-83
2022/08/18 17:55:09;;;;;;;3.20;3.00;;;27.90;76.80;;;;;;5075966;28;20525;-86
2022/08/18 17:57:45;;;;;;;3.80;3.50;;;27.90;76.90;;;;;;5064012;28;20975;-85
2022/08/18 18:00:17;;;;;;;3.97;3.67;;;27.90;76.90;;;;;;5056063;28;20532;-86
2022/08/18 18:02:46;;;;;;;3.77;3.40;;;27.90;76.90;;;;;;5055900;28;20528;-84
2022/08/18 18:05:16;;;;;;;4.07;3.80;;;27.90;76.90;;;;;;5055664;28;20469;-87
2022/08/18 18:07:56;;;;;;;3.43;3.20;;;27.90;76.90;;;;;;5055758;28;20470;-87
2022/08/18 18:10:26;;;;;;;3.70;3.50;;;27.90;76.80;;;;;;5056285;28;20529;-86
2022/08/18 18:13:09;;;;;;;3.63;3.43;;;27.90;76.90;;;;;;5056350;28;20449;-85
2022/08/18 18:15:38;;;;;;;3.87;3.67;;;27.90;76.80;;;;;;5055586;28;20911;-85
2022/08/18 18:18:31;;;;;;;3.27;3.17;;;27.80;76.70;;;;;;5054904;28;20798;-85
2022/08/18 18:21:05;;;;;;;3.20;3.00;;;27.90;76.70;;;;;;5055560;28;20453;-85
2022/08/18 18:23:38;;;;;;;3.43;3.23;;;27.90;76.80;;;;;;5055655;28;20837;-85
2022/08/18 18:26:24;;;;;;;3.37;3.10;;;27.90;77.70;;;;;;5056279;28;20446;-85
2022/08/18 18:29:09;;;;;;;3.23;3.03;;;27.90;77.70;;;;;;5058260;28;20515;-86
2022/08/18 18:31:36;;;;;;;3.47;3.27;;;27.90;76.90;;;;;;5069725;28;20480;-85
2022/08/18 18:34:06;;;;;;;3.40;3.00;;;27.90;76.90;;;;;;5055546;28;20867;-85
2022/08/18 18:36:35;;;;;;;3.03;2.77;;;27.90;76.80;;;;;;5054801;28;20496;-85
2022/08/18 18:39:10;;;;;;;3.90;3.60;;;27.90;76.80;;;;;;5055026;28;20454;-85
2022/08/18 18:41:39;;;;;;;2.90;2.70;;;27.90;77.70;;;;;;5054956;28;20516;-85
2022/08/18 18:44:09;;;;;;;3.40;3.20;;;27.90;76.90;;;;;;5055479;28;20787;-85
2022/08/18 18:46:43;;;;;;;3.57;3.27;;;27.90;76.90;;;;;;5054976;28;20526;-85
2022/08/18 18:49:18;;;;;;;3.13;3.03;;;27.90;76.90;;;;;;5054775;28;20444;-85
2022/08/18 18:52:03;;;;;;;3.33;3.13;;;27.90;76.90;;;;;;5054959;28;21015;-85
2022/08/18 18:54:47;;;;;;;3.60;3.40;;;27.90;77.00;;;;;;5056286;28;20477;-84
2022/08/18 18:57:19;;;;;;;3.33;3.13;;;27.90;77.00;;;;;;5055971;28;20446;-83
2022/08/18 19:00:01;;;;;;;3.10;3.00;;;27.90;77.00;;;;;;5056097;28;20452;-87
2022/08/18 19:13:23;;;;;;;2.90;2.80;;;27.90;76.90;;;;;;4993882;23;20495;-95
2022/08/18 19:20:25;;;;;;;3.20;3.00;;;27.90;76.90;;;;;;5101642;28;20440;-94
2022/08/18 19:23:41;;;;;;;3.47;3.20;;;27.90;77.10;;;;;;5081396;28;20454;-95
2022/08/18 19:26:37;;;;;;;3.43;3.23;;;27.90;76.90;;;;;;5059056;28;20451;-95
2022/08/18 19:29:58;;;;;;;3.23;3.03;;;27.80;76.90;;;;;;5099758;28;20440;-95
2022/08/18 19:33:02;;;;;;;2.87;2.77;;;27.70;76.70;;;;;;5098864;28;20470;-96
2022/08/18 19:42:50;;;;;;;2.83;2.73;;;27.90;77.00;;;;;;5056249;28;20482;-94
2022/08/18 19:51:57;;;;;;;3.17;2.97;;;27.90;77.00;;;;;;5258879;22;21008;-93
2022/08/18 19:55:13;;;;;;;3.03;2.90;;;27.90;77.00;;;;;;5119377;28;20754;-95
2022/08/18 20:00:21;;;;;;;3.10;2.90;;;27.90;77.20;;;;;;5179418;22;20524;-95
2022/08/18 20:10:14;;;;;;;4.00;3.30;;;27.80;77.40;;;;;;5012975;28;20962;-95
2022/08/18 20:13:18;;;;;;;3.67;2.87;;;27.70;77.70;;;;;;5013274;28;20447;-96
2022/08/18 20:16:14;;;;;;;2.60;2.30;;;27.70;77.90;;;;;;5012344;28;20479;-95
2022/08/18 20:18:44;;;;;;;3.13;2.93;;;27.70;78.10;;;;;;4996456;28;20984;-94
2022/08/18 20:21:45;;;;;;;3.20;3.00;;;27.60;78.00;;;;;;5013416;28;20454;-95
2022/08/18 20:25:04;;;;;;;2.90;2.80;;;27.70;78.00;;;;;;5005715;28;20486;-95
2022/08/18 20:27:57;;;;;;;3.10;2.90;;;27.60;78.20;;;;;;5054680;28;20495;-95
2022/08/18 20:31:01;;;;;;;3.10;2.80;;;27.60;78.30;;;;;;5054713;28;20921;-95
2022/08/18 20:36:46;;;;;;;3.00;2.80;;;27.50;78.40;;;;;;5052121;28;20501;-95
2022/08/18 20:39:40;;;;;;;3.50;3.27;;;27.30;78.40;;;;;;5054304;28;20453;-95
2022/08/18 20:42:28;;;;;;;3.23;3.13;;;27.50;78.60;;;;;;5058976;28;20438;-96
2022/08/18 20:45:21;;;;;;;3.00;2.70;;;27.50;78.80;;;;;;5058246;28;20813;-95
2022/08/18 20:48:21;;;;;;;3.53;3.23;;;27.50;78.80;;;;;;5058083;28;20445;-95
2022/08/18 20:50:58;;;;;;;2.97;2.77;;;27.50;78.60;;;;;;5057077;28;20450;-90
2022/08/18 20:54:06;;;;;;;14.87;12.40;;;27.50;78.60;;;;;;5057750;28;20525;-91
2022/08/18 20:56:45;;;;;;;12.73;8.50;;;27.50;78.70;;;;;;5058922;28;20481;-96
2022/08/18 20:59:21;;;;;;;10.27;8.13;;;27.50;78.70;;;;;;5058354;28;20576;-96
2022/08/18 21:02:08;;;;;;;7.80;6.53;;;27.60;78.40;;;;;;5066536;28;20469;-96
2022/08/18 21:04:53;;;;;;;7.57;6.27;;;27.70;78.10;;;;;;5059214;28;20438;-96
2022/08/18 21:07:25;;;;;;;7.43;5.43;;;27.50;77.80;;;;;;5060530;28;20449;-94
2022/08/18 21:09:57;;;;;;;6.00;4.80;;;27.70;77.80;;;;;;5059878;28;20450;-96
2022/08/18 21:12:29;;;;;;;5.53;4.60;;;27.70;77.70;;;;;;5060352;28;20442;-96
2022/08/18 21:14:58;;;;;;;4.30;3.90;;;27.70;77.60;;;;;;5060162;28;20504;-96
2022/08/18 21:17:29;;;;;;;4.10;3.80;;;27.70;77.50;;;;;;5058966;28;20520;-94
2022/08/18 21:20:02;;;;;;;4.07;3.70;;;27.80;77.50;;;;;;5059362;28;20446;-96
2022/08/18 21:22:33;;;;;;;4.00;3.63;;;27.80;78.30;;;;;;5059449;28;20460;-96
2022/08/18 21:25:06;;;;;;;4.50;4.23;;;27.80;77.40;;;;;;5058557;28;20449;-96
2022/08/18 21:27:41;;;;;;;4.10;3.80;;;27.80;77.30;;;;;;5058623;28;20454;-96
2022/08/18 21:30:18;;;;;;;4.20;3.80;;;27.80;77.20;;;;;;5058474;28;20444;-96
2022/08/18 21:32:48;;;;;;;5.20;3.83;;;27.80;77.20;;;;;;5058781;28;20449;-95
2022/08/18 21:35:26;;;;;;;3.93;3.60;;;27.90;77.30;;;;;;5058788;28;20466;-96
2022/08/18 21:38:00;;;;;;;3.47;3.20;;;27.80;77.20;;;;;;5059156;28;20913;-96
2022/08/18 21:40:31;;;;;;;3.00;2.90;;;27.80;77.20;;;;;;5060191;28;20440;-96
2022/08/18 21:42:59;;;;;;;3.23;3.03;;;27.80;77.20;;;;;;5059068;28;20774;-96
2022/08/18 21:45:33;;;;;;;4.80;3.10;;;27.80;77.20;;;;;;5058150;28;20453;-96
2022/08/18 21:48:10;;;;;;;3.00;2.80;;;27.80;77.20;;;;;;5058930;28;20436;-96
2022/08/18 21:50:41;;;;;;;3.40;3.20;;;27.80;77.20;;;;;;5058857;28;20520;-96
2022/08/18 21:53:20;;;;;;;3.90;3.60;;;27.80;77.20;;;;;;5059367;28;20445;-96
2022/08/18 21:55:53;;;;;;;4.23;3.13;;;27.80;77.10;;;;;;5059126;28;20433;-95
2022/08/18 21:58:27;;;;;;;3.10;2.90;;;27.80;77.20;;;;;;5060059;28;20445;-96
2022/08/18 22:01:19;;;;;;;2.80;2.70;;;27.70;77.00;;;;;;5058963;28;20442;-95
2022/08/18 22:03:56;;;;;;;3.07;2.87;;;27.90;77.20;;;;;;5059459;28;20537;-96
2022/08/18 22:06:35;;;;;;;2.90;2.70;;;27.80;77.10;;;;;;5059484;28;20473;-96
2022/08/18 22:15:17;;;;;;;3.30;3.10;;;27.70;77.00;;;;;;5058979;28;20510;-96
2022/08/18 22:17:56;;;;;;;5.80;3.47;;;27.60;77.10;;;;;;5059855;28;20503;-96
2022/08/18 22:20:48;;;;;;;2.97;2.77;;;27.80;77.20;;;;;;5059580;28;20482;-96
2022/08/18 22:26:14;;;;;;;3.23;3.03;;;27.80;77.10;;;;;;5059036;28;20405;-96
2022/08/18 22:29:03;;;;;;;3.00;2.70;;;27.80;77.20;;;;;;5059016;28;20484;-96
2022/08/18 22:31:40;;;;;;;2.67;2.57;;;27.80;77.10;;;;;;5059210;28;20788;-96
2022/08/18 22:34:16;;;;;;;2.50;2.40;;;27.80;77.10;;;;;;5058049;28;20445;-95
2022/08/18 22:36:52;;;;;;;2.50;2.30;;;27.80;77.10;;;;;;5058463;28;20485;-96
2022/08/18 22:39:30;;;;;;;3.30;3.10;;;27.80;77.10;;;;;;5059250;28;20464;-96
2022/08/18 22:42:01;;;;;;;2.80;2.70;;;27.80;77.00;;;;;;5058843;28;20469;-95
2022/08/18 22:44:30;;;;;;;3.23;3.03;;;27.80;77.00;;;;;;5058619;28;20533;-96
2022/08/18 22:47:11;;;;;;;2.33;2.23;;;27.70;76.90;;;;;;5058629;28;20448;-96
2022/08/18 22:49:45;;;;;;;3.03;2.90;;;27.70;76.90;;;;;;5058122;28;20458;-96
2022/08/18 22:52:22;;;;;;;3.23;2.93;;;27.70;76.90;;;;;;5058279;28;20441;-96
2022/08/18 22:54:53;;;;;;;3.10;2.90;;;27.80;77.00;;;;;;5058053;28;20456;-96
2022/08/18 22:57:23;;;;;;;2.90;2.70;;;27.80;77.00;;;;;;5058654;28;20473;-96
2022/08/18 22:59:55;;;;;;;3.00;2.80;;;27.80;77.00;;;;;;5086895;28;20542;-96
2022/08/18 23:02:28;;;;;;;2.80;2.70;;;27.80;76.90;;;;;;5098026;28;20452;-96
2022/08/18 23:04:58;;;;;;;3.20;3.00;;;27.80;77.00;;;;;;5099154;28;20506;-96
2022/08/18 23:07:33;;;;;;;3.23;2.93;;;27.80;76.90;;;;;;5098860;28;20446;-96
2022/08/18 23:10:03;;;;;;;3.20;3.00;;;27.80;77.00;;;;;;5099217;28;20489;-96
2022/08/18 23:12:39;;;;;;;2.97;2.70;;;27.80;77.00;;;;;;5098877;28;20448;-95
2022/08/18 23:15:10;;;;;;;2.87;2.67;;;27.80;77.00;;;;;;5098784;28;20443;-96
2022/08/18 23:17:42;;;;;;;3.10;2.90;;;27.80;76.90;;;;;;5098870;28;20545;-96
2022/08/18 23:20:21;;;;;;;2.30;2.20;;;27.80;76.90;;;;;;5098814;28;20465;-95
2022/08/18 23:25:36;;;;;;;3.20;3.00;;;27.80;76.90;;;;;;5096194;28;20428;-96
2022/08/18 23:28:09;;;;;;;2.70;2.60;;;27.80;76.90;;;;;;5097403;28;20797;-96
2022/08/18 23:30:43;;;;;;;2.23;2.13;;;27.80;76.90;;;;;;5096467;28;20432;-95
2022/08/18 23:33:18;;;;;;;3.00;2.50;;;27.80;76.90;;;;;;5097045;28;20534;-95
2022/08/18 23:35:56;;;;;;;3.17;2.97;;;27.80;76.90;;;;;;5097085;28;20463;-95
2022/08/18 23:38:28;;;;;;;2.80;2.60;;;27.80;76.90;;;;;;5097073;28;21085;-96
2022/08/18 23:40:59;;;;;;;3.30;3.10;;;27.90;77.00;;;;;;5097023;28;20440;-95
2022/08/18 23:43:30;;;;;;;2.60;2.50;;;27.70;76.80;;;;;;5096710;28;20436;-95
2022/08/18 23:46:02;;;;;;;2.63;2.43;;;27.80;76.90;;;;;;5096422;28;20466;-96
2022/08/18 23:48:40;;;;;;;2.87;2.67;;;27.80;76.90;;;;;;5098092;28;20443;-96
2022/08/18 23:51:28;;;;;;;3.13;2.90;;;27.80;76.90;;;;;;5098910;28;20523;-96
2022/08/18 23:54:25;;;;;;;2.90;2.70;;;27.80;76.90;;;;;;5098106;28;20501;-96
2022/08/18 23:57:00;;;;;;;2.17;2.07;;;27.80;76.90;;;;;;5097910;28;21015;-96
2022/08/18 23:59:33;;;;;;;2.80;2.60;;;27.80;76.90;;;;;;5097780;28;20483;-96
